createdAt,value
2017-11-11T00:00:04.838Z,5.00
2017-11-11T00:02:05.808Z,5.00
2017-11-11T00:04:06.801Z,5.00
2017-11-11T00:06:07.771Z,4.90
2017-11-11T00:08:08.714Z,4.90
2017-11-11T00:10:09.738Z,4.80
2017-11-11T00:12:10.735Z,4.80
2017-11-11T00:14:11.741Z,4.80
2017-11-11T00:16:12.700Z,4.80
2017-11-11T00:18:13.629Z,4.80
2017-11-11T00:20:14.693Z,4.80
2017-11-11T00:22:15.681Z,4.70
2017-11-11T00:24:16.609Z,4.80
2017-11-11T00:26:17.589Z,4.80
2017-11-11T00:28:19.276Z,4.80
2017-11-11T00:30:20.304Z,4.80
2017-11-11T00:32:21.992Z,4.80
2017-11-11T00:34:22.981Z,4.80
2017-11-11T00:36:24.050Z,4.80
2017-11-11T00:38:25.030Z,4.80
2017-11-11T00:40:26.000Z,4.80
2017-11-11T00:42:27.000Z,4.80
2017-11-11T00:44:28.048Z,4.80
2017-11-11T00:46:29.823Z,4.80
2017-11-11T00:48:30.818Z,4.80
2017-11-11T00:50:31.796Z,4.80
2017-11-11T00:52:33.533Z,4.70
2017-11-11T00:54:34.540Z,4.80
2017-11-11T00:56:35.525Z,4.80
2017-11-11T00:58:36.475Z,4.70
2017-11-11T01:00:37.473Z,4.70
2017-11-11T01:02:38.441Z,4.70
2017-11-11T01:04:39.413Z,4.60
2017-11-11T01:06:40.413Z,4.60
2017-11-11T01:08:41.380Z,4.70
2017-11-11T01:10:42.364Z,4.60
2017-11-11T01:12:44.109Z,4.60
2017-11-11T01:14:45.065Z,4.60
2017-11-11T01:16:46.017Z,4.70
2017-11-11T01:18:47.018Z,4.60
2017-11-11T01:20:48.782Z,4.50
2017-11-11T01:22:49.720Z,4.60
2017-11-11T01:24:50.732Z,4.50
2017-11-11T01:26:51.697Z,4.50
2017-11-11T01:28:53.419Z,4.50
2017-11-11T01:30:54.409Z,4.50
2017-11-11T01:32:55.436Z,4.50
2017-11-11T01:34:57.136Z,4.50
2017-11-11T01:36:58.124Z,4.50
2017-11-11T01:38:59.100Z,4.50
2017-11-11T01:41:00.809Z,4.50
2017-11-11T01:43:01.761Z,4.50
2017-11-11T01:45:02.723Z,4.60
2017-11-11T01:47:03.724Z,4.60
2017-11-11T01:49:04.671Z,4.70
2017-11-11T01:51:05.643Z,4.70
2017-11-11T01:53:06.650Z,4.80
2017-11-11T01:55:08.326Z,4.90
2017-11-11T01:57:09.286Z,4.90
2017-11-11T01:59:10.322Z,4.90
2017-11-11T02:01:11.350Z,5.00
2017-11-11T02:03:13.068Z,4.90
2017-11-11T02:05:14.070Z,4.90
2017-11-11T02:07:15.097Z,4.90
2017-11-11T02:09:16.117Z,4.80
2017-11-11T02:11:17.053Z,4.80
2017-11-11T02:13:18.043Z,4.70
2017-11-11T02:15:19.054Z,4.70
2017-11-11T02:17:20.004Z,4.60
2017-11-11T02:19:20.985Z,4.60
2017-11-11T02:21:23.291Z,4.50
2017-11-11T02:23:24.364Z,4.50
2017-11-11T02:25:25.320Z,4.50
2017-11-11T02:27:26.403Z,4.50
2017-11-11T02:29:27.394Z,4.50
2017-11-11T02:31:28.434Z,4.50
2017-11-11T02:33:29.394Z,4.50
2017-11-11T02:35:31.244Z,4.50
2017-11-11T02:37:32.241Z,4.50
2017-11-11T02:39:33.198Z,4.50
2017-11-11T02:41:34.995Z,4.50
2017-11-11T02:43:35.968Z,4.50
2017-11-11T02:45:36.917Z,4.50
2017-11-11T02:47:37.895Z,4.50
2017-11-11T02:49:38.914Z,4.50
2017-11-11T02:51:39.905Z,4.50
2017-11-11T02:53:41.623Z,4.60
2017-11-11T02:55:42.580Z,4.60
2017-11-11T02:57:43.522Z,4.50
2017-11-11T02:59:44.506Z,4.50
2017-11-11T03:01:45.445Z,4.60
2017-11-11T03:03:46.402Z,4.60
2017-11-11T03:05:48.111Z,4.60
2017-11-11T03:07:49.104Z,4.60
2017-11-11T03:09:50.856Z,4.60
2017-11-11T03:11:52.557Z,4.50
2017-11-11T03:13:53.501Z,4.50
2017-11-11T03:15:54.489Z,4.50
2017-11-11T03:17:56.454Z,4.50
2017-11-11T03:19:57.476Z,4.50
2017-11-11T03:21:58.462Z,4.50
2017-11-11T03:23:59.415Z,4.50
2017-11-11T03:26:00.398Z,4.50
2017-11-11T03:28:01.341Z,4.50
2017-11-11T03:30:02.357Z,4.60
2017-11-11T03:32:04.078Z,4.60
2017-11-11T03:34:05.144Z,4.60
2017-11-11T03:36:06.121Z,4.60
2017-11-11T03:38:07.056Z,4.60
2017-11-11T03:40:08.034Z,4.60
2017-11-11T03:42:09.008Z,4.60
2017-11-11T03:44:10.747Z,4.60
2017-11-11T03:46:12.440Z,4.60
2017-11-11T03:48:13.425Z,4.60
2017-11-11T03:50:14.425Z,4.60
2017-11-11T03:52:15.406Z,4.60
2017-11-11T03:54:16.398Z,4.60
2017-11-11T03:56:17.365Z,4.60
2017-11-11T03:58:18.331Z,4.50
2017-11-11T04:00:19.290Z,4.60
2017-11-11T04:02:20.262Z,4.50
2017-11-11T04:04:21.993Z,4.50
2017-11-11T04:06:23.065Z,4.50
2017-11-11T04:08:24.781Z,4.50
2017-11-11T04:10:26.269Z,4.40
2017-11-11T04:12:27.252Z,4.40
2017-11-11T04:14:28.201Z,4.40
2017-11-11T04:16:29.865Z,4.40
2017-11-11T04:18:30.835Z,4.40
2017-11-11T04:20:31.858Z,4.30
2017-11-11T04:22:32.809Z,4.30
2017-11-11T04:24:33.800Z,4.30
2017-11-11T04:26:34.749Z,4.30
2017-11-11T04:28:35.689Z,4.40
2017-11-11T04:30:36.680Z,4.40
2017-11-11T04:32:37.682Z,4.50
2017-11-11T04:34:38.657Z,4.50
2017-11-11T04:36:39.611Z,4.50
2017-11-11T04:38:40.589Z,4.50
2017-11-11T04:40:41.559Z,4.50
2017-11-11T04:42:42.573Z,4.60
2017-11-11T04:44:43.512Z,4.50
2017-11-11T04:46:44.458Z,4.50
2017-11-11T04:48:45.449Z,4.50
2017-11-11T04:50:46.425Z,4.60
2017-11-11T04:52:47.384Z,4.60
2017-11-11T04:54:48.418Z,4.60
2017-11-11T04:56:49.374Z,4.70
2017-11-11T04:58:50.313Z,4.70
2017-11-11T05:00:52.085Z,4.70
2017-11-11T05:02:53.054Z,4.70
2017-11-11T05:04:54.118Z,4.70
2017-11-11T05:06:55.169Z,4.70
2017-11-11T05:08:56.191Z,4.70
2017-11-11T05:10:57.181Z,4.70
2017-11-11T05:12:58.096Z,4.70
2017-11-11T05:14:59.081Z,4.70
2017-11-11T05:17:00.085Z,4.70
2017-11-11T05:19:01.063Z,4.60
2017-11-11T05:21:02.046Z,4.60
2017-11-11T05:23:03.729Z,4.60
2017-11-11T05:25:04.698Z,4.60
2017-11-11T05:27:05.679Z,4.60
2017-11-11T05:29:06.653Z,4.60
2017-11-11T05:31:07.622Z,4.60
2017-11-11T05:33:08.606Z,4.60
2017-11-11T05:35:09.565Z,4.60
2017-11-11T05:37:10.548Z,4.60
2017-11-11T05:39:11.560Z,4.60
2017-11-11T05:41:12.546Z,4.60
2017-11-11T05:43:13.542Z,4.60
2017-11-11T05:45:14.505Z,4.60
2017-11-11T05:47:15.452Z,4.60
2017-11-11T05:49:16.398Z,4.50
2017-11-11T05:51:18.128Z,4.60
2017-11-11T05:53:19.078Z,4.60
2017-11-11T05:55:20.009Z,4.60
2017-11-11T05:57:21.173Z,4.60
2017-11-11T05:59:22.101Z,4.60
2017-11-11T06:01:23.080Z,4.50
2017-11-11T06:03:24.086Z,4.50
2017-11-11T06:05:25.128Z,4.60
2017-11-11T06:07:26.145Z,4.60
2017-11-11T06:09:27.914Z,4.70
2017-11-11T06:11:29.672Z,4.70
2017-11-11T06:13:31.394Z,4.70
2017-11-11T06:15:32.362Z,4.70
2017-11-11T06:17:33.289Z,4.80
2017-11-11T06:19:34.252Z,4.80
2017-11-11T06:21:35.257Z,4.80
2017-11-11T06:23:36.201Z,4.80
2017-11-11T06:25:37.169Z,4.90
2017-11-11T06:27:38.131Z,4.90
2017-11-11T06:29:39.103Z,4.90
2017-11-11T06:31:40.049Z,4.90
2017-11-11T06:33:41.816Z,4.90
2017-11-11T06:35:43.540Z,4.90
2017-11-11T06:37:44.465Z,4.90
2017-11-11T06:39:45.424Z,4.90
2017-11-11T06:41:46.396Z,5.00
2017-11-11T06:43:47.351Z,4.90
2017-11-11T06:45:48.332Z,4.90
2017-11-11T06:47:49.336Z,4.90
2017-11-11T06:49:50.320Z,4.90
2017-11-11T06:51:51.999Z,4.90
2017-11-11T06:53:53.010Z,4.90
2017-11-11T06:55:53.953Z,4.90
2017-11-11T06:57:55.732Z,4.90
2017-11-11T06:59:57.498Z,4.90
2017-11-11T07:01:58.509Z,4.90
2017-11-11T07:03:59.471Z,4.90
2017-11-11T07:06:00.457Z,5.00
2017-11-11T07:08:01.388Z,5.00
2017-11-11T07:10:03.069Z,5.00
2017-11-11T07:12:04.763Z,5.00
2017-11-11T07:14:05.721Z,5.00
2017-11-11T07:16:06.684Z,5.00
2017-11-11T07:18:07.654Z,5.00
2017-11-11T07:20:08.666Z,5.00
2017-11-11T07:22:09.642Z,5.10
2017-11-11T07:24:10.605Z,5.10
2017-11-11T07:26:11.563Z,5.10
2017-11-11T07:28:12.529Z,5.50
2017-11-11T07:30:13.518Z,5.50
2017-11-11T07:32:14.487Z,5.40
2017-11-11T07:34:15.448Z,5.30
2017-11-11T07:36:16.417Z,5.30
2017-11-11T07:38:17.345Z,5.30
2017-11-11T07:40:18.301Z,5.30
2017-11-11T07:42:19.225Z,5.30
2017-11-11T07:44:20.208Z,5.90
2017-11-11T07:46:21.197Z,6.20
2017-11-11T07:48:22.149Z,6.00
2017-11-11T07:50:23.101Z,6.60
2017-11-11T07:52:24.061Z,6.80
2017-11-11T07:54:25.000Z,6.80
2017-11-11T07:56:25.965Z,6.70
2017-11-11T07:58:26.925Z,6.60
2017-11-11T08:00:27.885Z,6.70
2017-11-11T08:02:28.832Z,6.50
2017-11-11T08:04:29.765Z,6.30
2017-11-11T08:06:30.724Z,6.30
2017-11-11T08:08:31.657Z,6.30
2017-11-11T08:10:32.609Z,6.40
2017-11-11T08:12:33.541Z,6.60
2017-11-11T08:14:34.482Z,6.60
2017-11-11T08:16:35.492Z,6.70
2017-11-11T08:18:36.437Z,6.80
2017-11-11T08:20:37.377Z,6.80
2017-11-11T08:22:38.332Z,6.80
2017-11-11T08:24:39.297Z,6.80
2017-11-11T08:26:40.269Z,6.90
2017-11-11T08:28:41.221Z,6.80
2017-11-11T08:30:42.326Z,6.80
2017-11-11T08:32:43.362Z,6.90
2017-11-11T08:34:44.426Z,6.90
2017-11-11T08:36:45.478Z,7.00
2017-11-11T08:38:46.458Z,7.10
2017-11-11T08:40:47.417Z,6.90
2017-11-11T08:42:48.424Z,6.80
2017-11-11T08:44:49.385Z,6.60
2017-11-11T08:46:50.348Z,6.70
2017-11-11T08:48:51.322Z,7.20
2017-11-11T08:50:53.053Z,8.70
2017-11-11T08:52:54.836Z,9.10
2017-11-11T08:54:55.829Z,9.10
2017-11-11T08:56:56.797Z,8.50
2017-11-11T08:58:59.888Z,9.30
2017-11-11T09:01:02.916Z,9.80
2017-11-11T09:03:04.104Z,10.40
2017-11-11T09:05:05.430Z,10.70
2017-11-11T09:07:07.154Z,10.20
2017-11-11T09:09:08.218Z,10.10
2017-11-11T09:11:15.926Z,9.50
2017-11-11T09:13:16.899Z,9.20
2017-11-11T09:15:18.590Z,8.70
2017-11-11T09:17:19.632Z,8.70
2017-11-11T09:19:20.613Z,8.60
2017-11-11T09:21:21.595Z,8.30
2017-11-11T09:23:23.326Z,8.00
2017-11-11T09:25:24.362Z,8.00
2017-11-11T09:27:25.372Z,7.90
2017-11-11T09:29:26.436Z,7.80
2017-11-11T09:31:27.415Z,7.60
2017-11-11T09:33:28.713Z,7.50
2017-11-11T09:35:29.893Z,7.30
2017-11-11T09:37:32.963Z,7.20
2017-11-11T09:39:33.982Z,7.20
2017-11-11T09:41:35.167Z,7.20
2017-11-11T09:46:00.124Z,7.10
2017-11-11T09:48:01.191Z,7.00
2017-11-11T09:50:02.382Z,6.90
2017-11-11T09:52:03.529Z,6.70
2017-11-11T09:54:04.537Z,6.70
2017-11-11T09:56:05.768Z,6.60
2017-11-11T09:58:06.787Z,6.50
2017-11-11T10:00:07.772Z,6.60
2017-11-11T10:02:08.904Z,6.70
2017-11-11T10:04:11.281Z,6.90
2017-11-11T10:06:12.499Z,7.10
2017-11-11T10:08:15.471Z,7.30
2017-11-11T10:10:16.527Z,7.30
2017-11-11T10:12:17.545Z,7.30
2017-11-11T10:14:34.734Z,7.30
2017-11-11T10:16:35.796Z,7.30
2017-11-11T10:18:37.035Z,7.20
2017-11-11T10:20:38.102Z,7.20
2017-11-11T10:22:39.075Z,7.00
2017-11-11T10:24:40.066Z,6.90
2017-11-11T10:26:42.067Z,6.80
2017-11-11T10:28:43.077Z,6.70
2017-11-11T10:30:44.071Z,6.60
2017-11-11T10:32:45.108Z,6.60
2017-11-11T10:34:46.167Z,6.50
2017-11-11T10:36:47.139Z,6.50
2017-11-11T10:38:48.195Z,6.40
2017-11-11T10:40:49.486Z,6.40
2017-11-11T10:42:50.485Z,6.30
2017-11-11T10:44:55.173Z,6.30
2017-11-11T10:46:56.231Z,6.20
2017-11-11T10:48:57.250Z,6.10
2017-11-11T10:50:58.263Z,6.00
2017-11-11T10:52:59.634Z,5.90
2017-11-11T10:55:00.673Z,6.00
2017-11-11T10:57:01.843Z,6.00
2017-11-11T10:59:02.853Z,6.30
2017-11-11T11:01:03.891Z,6.40
2017-11-11T11:03:04.885Z,6.60
2017-11-11T11:05:06.242Z,6.70
2017-11-11T11:07:07.239Z,6.70
2017-11-11T11:09:08.271Z,6.70
2017-11-11T11:11:09.245Z,6.70
2017-11-11T11:13:10.683Z,6.60
2017-11-11T11:15:11.732Z,6.70
2017-11-11T11:17:12.756Z,6.70
2017-11-11T11:19:13.751Z,6.80
2017-11-11T11:21:15.259Z,6.90
2017-11-11T11:23:16.837Z,7.20
2017-11-11T11:25:19.023Z,7.30
2017-11-11T11:27:20.114Z,7.40
2017-11-11T11:29:21.490Z,7.50
2017-11-11T11:31:22.595Z,7.60
2017-11-11T11:33:23.586Z,7.40
2017-11-11T11:35:25.983Z,7.30
2017-11-11T11:37:27.195Z,7.20
2017-11-11T11:39:28.190Z,7.20
2017-11-11T11:41:29.706Z,7.10
2017-11-11T11:43:31.009Z,7.10
2017-11-11T11:45:32.220Z,7.00
2017-11-11T11:47:34.463Z,7.30
2017-11-11T11:49:36.275Z,7.30
2017-11-11T11:51:37.881Z,7.40
2017-11-11T11:53:44.383Z,7.40
2017-11-11T11:55:45.490Z,7.40
2017-11-11T11:57:46.706Z,7.20
2017-11-11T11:59:47.721Z,7.10
2017-11-11T12:01:48.724Z,7.00
2017-11-11T12:03:54.075Z,7.00
2017-11-11T12:05:55.605Z,6.90
2017-11-11T12:07:56.634Z,6.90
2017-11-11T12:09:57.854Z,6.80
2017-11-11T12:11:59.993Z,6.70
2017-11-11T12:14:01.059Z,6.40
2017-11-11T12:16:02.111Z,5.90
2017-11-11T12:18:03.141Z,5.70
2017-11-11T12:20:04.124Z,5.50
2017-11-11T12:22:05.346Z,5.40
2017-11-11T12:24:06.506Z,5.30
2017-11-11T12:26:07.519Z,5.30
2017-11-11T12:28:09.289Z,5.20
2017-11-11T12:30:11.415Z,5.30
2017-11-11T12:32:12.520Z,5.20
2017-11-11T12:34:13.529Z,5.20
2017-11-11T12:36:14.534Z,5.30
2017-11-11T12:38:15.518Z,5.30
2017-11-11T12:40:16.506Z,5.20
2017-11-11T12:42:17.482Z,5.30
2017-11-11T12:44:18.465Z,5.30
2017-11-11T12:46:19.448Z,5.30
2017-11-11T12:48:20.423Z,5.20
2017-11-11T12:50:21.826Z,5.20
2017-11-11T12:52:22.856Z,5.20
2017-11-11T12:54:23.927Z,5.20
2017-11-11T12:56:24.963Z,5.20
2017-11-11T12:58:26.576Z,5.20
2017-11-11T13:00:27.861Z,5.20
2017-11-11T13:02:29.022Z,5.30
2017-11-11T13:04:30.013Z,5.30
2017-11-11T13:06:30.998Z,5.40
2017-11-11T13:08:34.592Z,5.40
2017-11-11T13:10:35.946Z,5.40
2017-11-11T13:12:36.950Z,5.40
2017-11-11T13:14:39.154Z,5.50
2017-11-11T13:16:40.222Z,5.50
2017-11-11T13:18:41.214Z,5.50
2017-11-11T13:20:43.070Z,5.60
2017-11-11T13:22:44.079Z,5.60
2017-11-11T13:24:45.154Z,5.60
2017-11-11T13:26:46.889Z,5.60
2017-11-11T13:28:47.873Z,5.60
2017-11-11T13:30:49.297Z,5.60
2017-11-11T13:32:50.335Z,5.60
2017-11-11T13:34:51.289Z,5.60
2017-11-11T13:36:52.272Z,5.60
2017-11-11T13:38:53.246Z,5.60
2017-11-11T13:40:54.205Z,5.60
2017-11-11T13:42:55.210Z,5.60
2017-11-11T13:44:56.244Z,5.60
2017-11-11T13:46:57.952Z,5.60
2017-11-11T13:48:58.947Z,5.60
2017-11-11T13:50:59.919Z,5.60
2017-11-11T13:53:00.897Z,5.60
2017-11-11T13:55:01.992Z,5.60
2017-11-11T13:57:03.053Z,5.60
2017-11-11T13:59:04.300Z,5.50
2017-11-11T14:01:05.815Z,5.50
2017-11-11T14:03:07.655Z,5.60
2017-11-11T14:05:08.679Z,5.60
2017-11-11T14:07:09.655Z,5.60
2017-11-11T14:09:11.344Z,5.60
2017-11-11T14:11:12.952Z,5.70
2017-11-11T14:13:13.958Z,5.70
2017-11-11T14:15:15.005Z,5.70
2017-11-11T14:17:16.818Z,5.90
2017-11-11T14:19:17.971Z,5.80
2017-11-11T14:21:19.578Z,5.90
2017-11-11T14:23:21.411Z,5.80
2017-11-11T14:27:59.166Z,5.70
2017-11-11T14:30:02.023Z,5.70
2017-11-11T14:32:03.287Z,5.60
2017-11-11T14:34:12.524Z,5.60
2017-11-11T14:36:33.149Z,5.50
2017-11-11T14:38:34.396Z,5.40
2017-11-11T14:41:01.532Z,5.40
2017-11-11T14:45:30.686Z,5.30
2017-11-11T14:47:31.862Z,5.30
2017-11-11T14:49:33.093Z,5.30
2017-11-11T14:51:59.383Z,5.30
2017-11-11T14:54:06.070Z,5.30
2017-11-11T14:56:09.323Z,5.20
2017-11-11T14:58:19.182Z,5.20
2017-11-11T15:02:26.586Z,5.20
2017-11-11T15:04:27.740Z,5.30
2017-11-11T15:06:28.871Z,5.20
2017-11-11T15:08:29.983Z,5.20
2017-11-11T15:13:15.134Z,5.20
2017-11-11T15:15:16.239Z,5.20
2017-11-11T15:19:55.378Z,5.20
2017-11-11T15:21:56.659Z,5.20
2017-11-11T15:23:59.522Z,5.20
2017-11-11T15:29:02.738Z,5.10
2017-11-11T15:31:03.847Z,5.10
2017-11-11T15:33:04.957Z,5.10
2017-11-11T15:35:07.088Z,5.00
2017-11-11T15:48:59.054Z,4.70
2017-11-11T15:51:00.204Z,4.70
2017-11-11T15:53:01.328Z,4.60
2017-11-11T15:55:02.843Z,4.60
2017-11-11T15:57:03.972Z,4.60
2017-11-11T16:01:33.405Z,4.50
2017-11-11T16:05:58.026Z,4.50
2017-11-11T16:08:05.799Z,4.50
2017-11-11T16:10:06.906Z,4.50
2017-11-11T16:12:08.145Z,4.40
2017-11-11T16:19:12.083Z,4.40
2017-11-11T16:21:13.143Z,4.40
2017-11-11T16:25:42.084Z,4.40
2017-11-11T16:27:44.196Z,4.40
2017-11-11T16:29:45.297Z,4.40
2017-11-11T16:31:46.935Z,4.40
2017-11-11T16:34:11.909Z,4.40
2017-11-11T16:36:41.366Z,4.40
2017-11-11T16:38:42.563Z,4.50
2017-11-11T16:43:14.288Z,4.50
2017-11-11T16:45:15.453Z,4.50
2017-11-11T16:49:39.635Z,4.60
2017-11-11T16:54:12.409Z,4.60
2017-11-11T16:58:42.506Z,4.60
2017-11-11T17:00:47.015Z,4.60
2017-11-11T17:02:48.235Z,4.60
2017-11-11T17:04:50.166Z,4.70
2017-11-11T17:06:52.471Z,4.70
2017-11-11T17:08:53.577Z,4.70
2017-11-11T17:11:07.783Z,4.80
2017-11-11T17:13:14.340Z,4.80
2017-11-11T17:15:15.593Z,4.80
2017-11-11T17:19:54.832Z,4.80
2017-11-11T17:21:56.001Z,4.80
2017-11-11T17:24:03.730Z,4.80
2017-11-11T17:26:04.846Z,4.70
2017-11-11T17:28:05.846Z,4.70
2017-11-11T17:30:08.118Z,4.70
2017-11-11T17:32:09.383Z,4.60
2017-11-11T17:34:10.382Z,4.60
2017-11-11T17:36:11.387Z,4.50
2017-11-11T17:38:13.828Z,4.50
2017-11-11T17:40:14.916Z,4.50
2017-11-11T17:42:16.008Z,4.50
2017-11-11T17:44:18.635Z,4.50
2017-11-11T17:46:19.820Z,4.50
2017-11-11T17:48:20.869Z,4.50
2017-11-11T17:50:25.785Z,4.60
2017-11-11T17:52:28.211Z,4.60
2017-11-11T17:54:31.902Z,4.70
2017-11-11T17:56:33.270Z,4.70
2017-11-11T17:58:34.848Z,4.80
2017-11-11T18:00:36.443Z,4.80
2017-11-11T18:02:37.586Z,4.90
2017-11-11T18:07:16.478Z,4.90
2017-11-11T18:11:25.874Z,4.90
2017-11-11T18:13:26.919Z,4.90
2017-11-11T18:15:30.507Z,4.90
2017-11-11T18:17:31.771Z,4.90
2017-11-11T18:19:33.046Z,4.90
2017-11-11T18:21:34.466Z,4.90
2017-11-11T18:23:35.480Z,4.80
2017-11-11T18:25:38.478Z,4.80
2017-11-11T18:27:39.624Z,4.70
2017-11-11T18:29:41.189Z,4.70
2017-11-11T18:31:42.225Z,4.70
2017-11-11T18:34:04.456Z,4.60
2017-11-11T18:36:05.696Z,4.60
2017-11-11T18:38:06.675Z,4.60
2017-11-11T18:40:09.429Z,4.60
2017-11-11T18:42:10.588Z,4.50
2017-11-11T18:46:38.322Z,4.50
2017-11-11T18:48:58.793Z,4.50
2017-11-11T18:50:59.938Z,4.50
2017-11-11T18:53:01.060Z,4.50
2017-11-11T18:57:17.743Z,4.50
2017-11-11T18:59:18.946Z,4.50
2017-11-11T19:01:19.977Z,4.50
2017-11-11T19:03:22.524Z,4.50
2017-11-11T19:05:23.619Z,4.50
2017-11-11T19:07:24.643Z,4.40
2017-11-11T19:09:25.686Z,4.40
2017-11-11T19:11:26.749Z,4.40
2017-11-11T19:13:28.567Z,4.40
2017-11-11T19:15:30.446Z,4.40
2017-11-11T19:17:31.544Z,4.40
2017-11-11T19:19:32.731Z,4.40
2017-11-11T19:21:36.027Z,4.40
2017-11-11T19:23:37.228Z,4.40
2017-11-11T19:25:38.865Z,4.40
2017-11-11T19:27:39.952Z,4.30
2017-11-11T19:29:41.355Z,4.40
2017-11-11T19:31:45.535Z,4.40
2017-11-11T19:33:58.305Z,4.40
2017-11-11T19:36:00.857Z,4.40
2017-11-11T19:38:01.897Z,4.40
2017-11-11T19:40:04.357Z,4.30
2017-11-11T19:42:05.998Z,4.40
2017-11-11T19:48:24.719Z,4.30
2017-11-11T19:50:25.882Z,4.30
2017-11-11T19:52:32.914Z,4.30
2017-11-11T19:54:35.051Z,4.30
2017-11-11T19:56:36.273Z,4.30
2017-11-11T19:58:37.375Z,4.30
2017-11-11T20:00:38.452Z,4.30
2017-11-11T20:02:39.435Z,4.30
2017-11-11T20:04:40.610Z,4.40
2017-11-11T20:06:41.634Z,4.30
2017-11-11T20:08:42.648Z,4.40
2017-11-11T20:10:43.647Z,4.30
2017-11-11T20:12:44.810Z,4.30
2017-11-11T20:14:45.990Z,4.30
2017-11-11T20:16:47.073Z,4.30
2017-11-11T20:18:53.148Z,4.30
2017-11-11T20:20:54.848Z,4.30
2017-11-11T20:22:56.924Z,4.30
2017-11-11T20:24:57.938Z,4.30
2017-11-11T20:26:58.924Z,4.20
2017-11-11T20:28:59.934Z,4.30
2017-11-11T20:31:08.913Z,4.20
2017-11-11T20:33:09.998Z,4.20
2017-11-11T20:35:11.067Z,4.20
2017-11-11T20:37:19.175Z,4.20
2017-11-11T20:39:20.321Z,4.20
2017-11-11T20:41:21.422Z,4.20
2017-11-11T20:43:27.735Z,4.20
2017-11-11T20:45:29.148Z,4.10
2017-11-11T20:47:30.173Z,4.10
2017-11-11T20:49:31.257Z,4.10
2017-11-11T20:51:32.266Z,4.00
2017-11-11T20:53:34.593Z,4.00
2017-11-11T20:55:37.180Z,4.00
2017-11-11T20:57:42.135Z,4.00
2017-11-11T20:59:44.555Z,4.00
2017-11-11T21:01:45.671Z,4.00
2017-11-11T21:03:46.798Z,3.90
2017-11-11T21:05:48.535Z,3.90
2017-11-11T21:07:49.638Z,3.90
2017-11-11T21:10:00.474Z,3.90
2017-11-11T21:12:02.556Z,3.90
2017-11-11T21:14:03.701Z,3.90
2017-11-11T21:16:04.776Z,3.90
2017-11-11T21:20:43.946Z,3.90
2017-11-11T21:22:44.957Z,3.90
2017-11-11T21:24:45.978Z,3.80
2017-11-11T21:26:47.278Z,3.90
2017-11-11T21:28:48.512Z,3.80
2017-11-11T21:30:49.559Z,3.80
2017-11-11T21:32:50.713Z,3.80
2017-11-11T21:37:19.790Z,3.80
2017-11-11T21:39:20.786Z,3.80
2017-11-11T21:41:22.807Z,3.80
2017-11-11T21:43:31.097Z,3.80
2017-11-11T21:45:32.254Z,3.80
2017-11-11T21:47:36.528Z,3.80
2017-11-11T21:49:37.568Z,3.80
2017-11-11T21:51:38.649Z,3.80
2017-11-11T21:56:17.052Z,3.90
2017-11-11T22:00:29.828Z,3.80
2017-11-11T22:04:37.533Z,3.80
2017-11-11T22:06:38.607Z,3.80
2017-11-11T22:08:44.486Z,3.80
2017-11-11T22:10:45.607Z,3.80
2017-11-11T22:12:54.340Z,3.80
2017-11-11T22:14:57.332Z,3.70
2017-11-11T22:21:42.859Z,3.70
2017-11-11T22:23:43.851Z,3.70
2017-11-11T22:25:45.229Z,3.60
2017-11-11T22:27:48.739Z,3.60
2017-11-11T22:29:49.818Z,3.60
2017-11-11T22:31:50.837Z,3.60
2017-11-11T22:33:51.937Z,3.60
2017-11-11T22:38:07.345Z,3.60
2017-11-11T22:40:08.529Z,3.60
2017-11-11T22:42:09.797Z,3.60
2017-11-11T22:44:10.881Z,3.60
2017-11-11T22:46:13.375Z,3.60
2017-11-11T22:48:15.639Z,3.60
2017-11-11T22:50:16.706Z,3.60
2017-11-11T22:52:17.672Z,3.60
2017-11-11T22:54:21.734Z,3.60
2017-11-11T22:56:23.832Z,3.50
2017-11-11T22:58:25.862Z,3.50
2017-11-11T23:02:54.764Z,3.50
2017-11-11T23:09:35.579Z,3.40
2017-11-11T23:14:17.540Z,3.40
2017-11-11T23:16:18.745Z,3.40
2017-11-11T23:18:19.846Z,3.40
2017-11-11T23:20:21.120Z,3.40
2017-11-11T23:22:22.431Z,3.40
2017-11-11T23:24:23.526Z,3.30
2017-11-11T23:26:25.894Z,3.30
2017-11-11T23:30:38.571Z,3.30
2017-11-11T23:32:39.589Z,3.30
2017-11-11T23:34:41.664Z,3.30
2017-11-11T23:38:50.411Z,3.30
2017-11-11T23:40:55.011Z,3.30
2017-11-11T23:42:56.126Z,3.20
2017-11-11T23:44:57.860Z,3.20
2017-11-11T23:46:59.043Z,3.20
2017-11-11T23:49:00.063Z,3.20
2017-11-11T23:51:01.075Z,3.20
2017-11-11T23:53:02.097Z,3.20
2017-11-11T23:55:03.368Z,3.20
2017-11-11T23:57:14.474Z,3.10
2017-11-11T23:59:19.516Z,3.10
